sensor_id;sensor_type;location;lat;lon;timestamp;P1;durP1;ratioP1;P2;durP2;ratioP2
5521;SDS011;2783;48.730;8.006;2022-11-25T00:01:19;9.40;;;6.20;;
5521;SDS011;2783;48.730;8.006;2022-11-25T00:03:46;16.17;;;6.70;;
5521;SDS011;2783;48.730;8.006;2022-11-25T00:06:13;15.30;;;7.20;;
5521;SDS011;2783;48.730;8.006;2022-11-25T00:08:41;11.38;;;6.47;;
5521;SDS011;2783;48.730;8.006;2022-11-25T00:11:09;8.52;;;6.22;;
5521;SDS011;2783;48.730;8.006;2022-11-25T00:13:36;11.45;;;6.00;;
5521;SDS011;2783;48.730;8.006;2022-11-25T00:16:03;10.60;;;6.65;;
5521;SDS011;2783;48.730;8.006;2022-11-25T00:18:30;8.63;;;5.53;;
5521;SDS011;2783;48.730;8.006;2022-11-25T00:20:56;10.15;;;5.07;;
5521;SDS011;2783;48.730;8.006;2022-11-25T00:23:22;8.80;;;5.10;;
5521;SDS011;2783;48.730;8.006;2022-11-25T00:25:47;9.82;;;4.80;;
5521;SDS011;2783;48.730;8.006;2022-11-25T00:28:13;7.57;;;5.03;;
5521;SDS011;2783;48.730;8.006;2022-11-25T00:30:38;9.73;;;5.20;;
5521;SDS011;2783;48.730;8.006;2022-11-25T00:33:04;9.65;;;5.28;;
5521;SDS011;2783;48.730;8.006;2022-11-25T00:35:29;12.15;;;5.18;;
5521;SDS011;2783;48.730;8.006;2022-11-25T00:37:54;7.90;;;5.65;;
5521;SDS011;2783;48.730;8.006;2022-11-25T00:40:20;13.68;;;5.63;;
5521;SDS011;2783;48.730;8.006;2022-11-25T00:42:45;9.25;;;4.95;;
5521;SDS011;2783;48.730;8.006;2022-11-25T00:47:54;11.82;;;5.70;;
5521;SDS011;2783;48.730;8.006;2022-11-25T00:50:20;10.55;;;6.15;;
5521;SDS011;2783;48.730;8.006;2022-11-25T00:52:45;10.73;;;5.53;;
5521;SDS011;2783;48.730;8.006;2022-11-25T00:55:11;10.35;;;5.82;;
5521;SDS011;2783;48.730;8.006;2022-11-25T00:57:36;10.23;;;5.72;;
5521;SDS011;2783;48.730;8.006;2022-11-25T01:00:02;12.07;;;6.07;;
5521;SDS011;2783;48.730;8.006;2022-11-25T01:02:28;10.68;;;6.57;;
5521;SDS011;2783;48.730;8.006;2022-11-25T01:04:54;9.55;;;6.30;;
5521;SDS011;2783;48.730;8.006;2022-11-25T01:07:19;10.95;;;5.88;;
5521;SDS011;2783;48.730;8.006;2022-11-25T01:09:45;12.82;;;7.05;;
5521;SDS011;2783;48.730;8.006;2022-11-25T01:12:11;13.73;;;7.00;;
5521;SDS011;2783;48.730;8.006;2022-11-25T01:14:37;9.93;;;6.53;;
5521;SDS011;2783;48.730;8.006;2022-11-25T01:17:02;13.60;;;6.57;;
5521;SDS011;2783;48.730;8.006;2022-11-25T01:19:28;10.90;;;6.07;;
5521;SDS011;2783;48.730;8.006;2022-11-25T01:21:53;14.63;;;6.50;;
5521;SDS011;2783;48.730;8.006;2022-11-25T01:24:19;10.73;;;5.50;;
5521;SDS011;2783;48.730;8.006;2022-11-25T01:26:44;10.82;;;5.00;;
5521;SDS011;2783;48.730;8.006;2022-11-25T01:29:12;36.63;;;6.57;;
5521;SDS011;2783;48.730;8.006;2022-11-25T01:31:39;16.25;;;7.50;;
5521;SDS011;2783;48.730;8.006;2022-11-25T01:34:06;10.95;;;5.95;;
5521;SDS011;2783;48.730;8.006;2022-11-25T01:36:37;13.90;;;5.65;;
5521;SDS011;2783;48.730;8.006;2022-11-25T01:39:03;11.05;;;6.25;;
5521;SDS011;2783;48.730;8.006;2022-11-25T01:41:29;15.07;;;7.47;;
5521;SDS011;2783;48.730;8.006;2022-11-25T01:44:10;10.75;;;6.55;;
5521;SDS011;2783;48.730;8.006;2022-11-25T01:46:50;11.60;;;5.63;;
5521;SDS011;2783;48.730;8.006;2022-11-25T01:49:27;12.00;;;6.35;;
5521;SDS011;2783;48.730;8.006;2022-11-25T01:51:58;9.90;;;5.47;;
5521;SDS011;2783;48.730;8.006;2022-11-25T01:54:39;11.98;;;6.20;;
5521;SDS011;2783;48.730;8.006;2022-11-25T01:57:12;8.90;;;5.70;;
5521;SDS011;2783;48.730;8.006;2022-11-25T01:59:43;11.50;;;5.70;;
5521;SDS011;2783;48.730;8.006;2022-11-25T02:02:12;12.48;;;7.20;;
5521;SDS011;2783;48.730;8.006;2022-11-25T02:04:39;10.20;;;5.40;;
5521;SDS011;2783;48.730;8.006;2022-11-25T02:07:10;8.63;;;4.43;;
5521;SDS011;2783;48.730;8.006;2022-11-25T02:09:50;9.80;;;5.07;;
5521;SDS011;2783;48.730;8.006;2022-11-25T02:12:17;6.88;;;4.57;;
5521;SDS011;2783;48.730;8.006;2022-11-25T02:14:44;9.10;;;4.70;;
5521;SDS011;2783;48.730;8.006;2022-11-25T02:17:12;7.63;;;4.43;;
5521;SDS011;2783;48.730;8.006;2022-11-25T02:22:05;26.42;;;10.85;;
5521;SDS011;2783;48.730;8.006;2022-11-25T02:24:45;13.10;;;8.55;;
5521;SDS011;2783;48.730;8.006;2022-11-25T02:27:14;21.42;;;6.47;;
5521;SDS011;2783;48.730;8.006;2022-11-25T02:29:41;12.27;;;5.95;;
5521;SDS011;2783;48.730;8.006;2022-11-25T02:32:07;9.90;;;5.75;;
5521;SDS011;2783;48.730;8.006;2022-11-25T02:34:33;7.18;;;3.85;;
5521;SDS011;2783;48.730;8.006;2022-11-25T02:36:58;8.82;;;5.05;;
5521;SDS011;2783;48.730;8.006;2022-11-25T02:39:24;8.60;;;4.95;;
5521;SDS011;2783;48.730;8.006;2022-11-25T02:41:53;7.93;;;4.03;;
5521;SDS011;2783;48.730;8.006;2022-11-25T02:44:22;6.87;;;4.20;;
5521;SDS011;2783;48.730;8.006;2022-11-25T02:46:48;6.95;;;3.83;;
5521;SDS011;2783;48.730;8.006;2022-11-25T02:49:14;7.00;;;4.25;;
5521;SDS011;2783;48.730;8.006;2022-11-25T02:51:40;7.82;;;3.75;;
5521;SDS011;2783;48.730;8.006;2022-11-25T02:54:08;6.05;;;3.97;;
5521;SDS011;2783;48.730;8.006;2022-11-25T02:56:35;11.25;;;3.90;;
5521;SDS011;2783;48.730;8.006;2022-11-25T02:59:01;7.55;;;4.53;;
5521;SDS011;2783;48.730;8.006;2022-11-25T03:01:27;10.10;;;4.30;;
5521;SDS011;2783;48.730;8.006;2022-11-25T03:03:55;8.93;;;4.35;;
5521;SDS011;2783;48.730;8.006;2022-11-25T03:06:20;7.78;;;4.15;;
5521;SDS011;2783;48.730;8.006;2022-11-25T03:08:46;7.85;;;4.20;;
5521;SDS011;2783;48.730;8.006;2022-11-25T03:11:12;7.47;;;3.92;;
5521;SDS011;2783;48.730;8.006;2022-11-25T03:13:37;6.28;;;4.05;;
5521;SDS011;2783;48.730;8.006;2022-11-25T03:16:03;6.60;;;4.05;;
5521;SDS011;2783;48.730;8.006;2022-11-25T03:18:29;6.63;;;4.05;;
5521;SDS011;2783;48.730;8.006;2022-11-25T03:20:54;7.53;;;4.10;;
5521;SDS011;2783;48.730;8.006;2022-11-25T03:23:20;6.95;;;3.95;;
5521;SDS011;2783;48.730;8.006;2022-11-25T03:25:47;7.70;;;4.60;;
5521;SDS011;2783;48.730;8.006;2022-11-25T03:28:12;7.85;;;3.95;;
5521;SDS011;2783;48.730;8.006;2022-11-25T03:30:38;5.45;;;3.10;;
5521;SDS011;2783;48.730;8.006;2022-11-25T03:33:03;6.38;;;4.30;;
5521;SDS011;2783;48.730;8.006;2022-11-25T03:35:29;6.38;;;3.60;;
5521;SDS011;2783;48.730;8.006;2022-11-25T03:37:54;8.05;;;3.55;;
5521;SDS011;2783;48.730;8.006;2022-11-25T03:40:20;5.40;;;3.33;;
5521;SDS011;2783;48.730;8.006;2022-11-25T03:42:45;7.60;;;4.13;;
5521;SDS011;2783;48.730;8.006;2022-11-25T03:45:11;5.43;;;3.97;;
5521;SDS011;2783;48.730;8.006;2022-11-25T03:47:38;7.85;;;4.00;;
5521;SDS011;2783;48.730;8.006;2022-11-25T03:50:08;12.25;;;4.68;;
5521;SDS011;2783;48.730;8.006;2022-11-25T03:52:35;8.27;;;4.22;;
5521;SDS011;2783;48.730;8.006;2022-11-25T03:55:00;7.43;;;4.05;;
5521;SDS011;2783;48.730;8.006;2022-11-25T03:57:26;5.28;;;3.40;;
5521;SDS011;2783;48.730;8.006;2022-11-25T03:59:52;9.45;;;4.00;;
5521;SDS011;2783;48.730;8.006;2022-11-25T04:02:17;8.05;;;3.58;;
5521;SDS011;2783;48.730;8.006;2022-11-25T04:04:43;22.70;;;9.25;;
5521;SDS011;2783;48.730;8.006;2022-11-25T04:07:09;23.60;;;11.70;;
5521;SDS011;2783;48.730;8.006;2022-11-25T04:09:35;36.35;;;19.33;;
5521;SDS011;2783;48.730;8.006;2022-11-25T04:12:00;36.47;;;22.58;;
5521;SDS011;2783;48.730;8.006;2022-11-25T04:17:09;43.70;;;25.50;;
5521;SDS011;2783;48.730;8.006;2022-11-25T04:19:35;26.75;;;16.83;;
5521;SDS011;2783;48.730;8.006;2022-11-25T04:22:00;19.85;;;12.93;;
5521;SDS011;2783;48.730;8.006;2022-11-25T04:24:27;11.90;;;6.57;;
5521;SDS011;2783;48.730;8.006;2022-11-25T04:26:52;14.32;;;7.50;;
5521;SDS011;2783;48.730;8.006;2022-11-25T04:29:18;13.43;;;6.35;;
5521;SDS011;2783;48.730;8.006;2022-11-25T04:31:44;11.60;;;6.13;;
5521;SDS011;2783;48.730;8.006;2022-11-25T04:34:09;10.00;;;6.78;;
5521;SDS011;2783;48.730;8.006;2022-11-25T04:36:34;10.25;;;5.90;;
5521;SDS011;2783;48.730;8.006;2022-11-25T04:39:00;8.05;;;4.78;;
5521;SDS011;2783;48.730;8.006;2022-11-25T04:41:26;8.57;;;4.45;;
5521;SDS011;2783;48.730;8.006;2022-11-25T04:43:51;7.85;;;4.88;;
5521;SDS011;2783;48.730;8.006;2022-11-25T04:46:17;7.80;;;3.92;;
5521;SDS011;2783;48.730;8.006;2022-11-25T04:48:45;5.18;;;3.28;;
5521;SDS011;2783;48.730;8.006;2022-11-25T04:51:11;12.13;;;4.30;;
5521;SDS011;2783;48.730;8.006;2022-11-25T04:53:37;6.97;;;4.05;;
5521;SDS011;2783;48.730;8.006;2022-11-25T04:56:02;9.18;;;4.18;;
5521;SDS011;2783;48.730;8.006;2022-11-25T04:58:28;5.65;;;3.85;;
5521;SDS011;2783;48.730;8.006;2022-11-25T05:01:12;6.60;;;3.75;;
5521;SDS011;2783;48.730;8.006;2022-11-25T05:03:37;8.15;;;4.38;;
5521;SDS011;2783;48.730;8.006;2022-11-25T05:06:06;6.80;;;3.75;;
5521;SDS011;2783;48.730;8.006;2022-11-25T05:08:32;10.63;;;4.10;;
5521;SDS011;2783;48.730;8.006;2022-11-25T05:10:58;7.50;;;3.72;;
5521;SDS011;2783;48.730;8.006;2022-11-25T05:13:23;17.85;;;4.65;;
5521;SDS011;2783;48.730;8.006;2022-11-25T05:15:49;6.47;;;3.72;;
5521;SDS011;2783;48.730;8.006;2022-11-25T05:18:14;6.00;;;4.00;;
5521;SDS011;2783;48.730;8.006;2022-11-25T05:20:40;8.15;;;3.63;;
5521;SDS011;2783;48.730;8.006;2022-11-25T05:23:05;6.28;;;3.53;;
5521;SDS011;2783;48.730;8.006;2022-11-25T05:25:30;6.35;;;3.47;;
5521;SDS011;2783;48.730;8.006;2022-11-25T05:27:56;5.32;;;3.22;;
5521;SDS011;2783;48.730;8.006;2022-11-25T05:30:21;8.82;;;3.40;;
5521;SDS011;2783;48.730;8.006;2022-11-25T05:32:47;6.88;;;3.17;;
5521;SDS011;2783;48.730;8.006;2022-11-25T05:35:12;5.45;;;4.13;;
5521;SDS011;2783;48.730;8.006;2022-11-25T05:37:37;17.23;;;5.07;;
5521;SDS011;2783;48.730;8.006;2022-11-25T05:40:03;13.02;;;4.28;;
5521;SDS011;2783;48.730;8.006;2022-11-25T05:42:29;7.75;;;4.35;;
5521;SDS011;2783;48.730;8.006;2022-11-25T05:44:55;10.02;;;4.28;;
5521;SDS011;2783;48.730;8.006;2022-11-25T05:47:20;12.43;;;4.40;;
5521;SDS011;2783;48.730;8.006;2022-11-25T05:49:46;8.63;;;4.05;;
5521;SDS011;2783;48.730;8.006;2022-11-25T05:52:11;6.68;;;4.35;;
5521;SDS011;2783;48.730;8.006;2022-11-25T05:54:37;9.18;;;4.28;;
5521;SDS011;2783;48.730;8.006;2022-11-25T05:57:02;7.25;;;4.50;;
5521;SDS011;2783;48.730;8.006;2022-11-25T05:59:28;9.80;;;4.20;;
5521;SDS011;2783;48.730;8.006;2022-11-25T06:01:53;8.50;;;4.30;;
5521;SDS011;2783;48.730;8.006;2022-11-25T06:04:19;8.80;;;4.70;;
5521;SDS011;2783;48.730;8.006;2022-11-25T06:06:44;10.77;;;5.05;;
5521;SDS011;2783;48.730;8.006;2022-11-25T06:09:09;11.00;;;4.90;;
5521;SDS011;2783;48.730;8.006;2022-11-25T06:11:35;13.15;;;4.85;;
5521;SDS011;2783;48.730;8.006;2022-11-25T06:14:01;25.92;;;5.75;;
5521;SDS011;2783;48.730;8.006;2022-11-25T06:16:27;11.13;;;5.30;;
5521;SDS011;2783;48.730;8.006;2022-11-25T06:18:52;10.00;;;5.40;;
5521;SDS011;2783;48.730;8.006;2022-11-25T06:21:18;12.55;;;6.10;;
5521;SDS011;2783;48.730;8.006;2022-11-25T06:23:43;15.60;;;7.90;;
5521;SDS011;2783;48.730;8.006;2022-11-25T06:26:17;15.43;;;6.95;;
5521;SDS011;2783;48.730;8.006;2022-11-25T06:28:45;10.90;;;6.65;;
5521;SDS011;2783;48.730;8.006;2022-11-25T06:31:16;14.98;;;6.65;;
5521;SDS011;2783;48.730;8.006;2022-11-25T06:33:45;10.73;;;6.78;;
5521;SDS011;2783;48.730;8.006;2022-11-25T06:36:11;12.00;;;7.13;;
5521;SDS011;2783;48.730;8.006;2022-11-25T06:38:46;13.00;;;8.27;;
5521;SDS011;2783;48.730;8.006;2022-11-25T06:41:16;10.98;;;7.57;;
5521;SDS011;2783;48.730;8.006;2022-11-25T06:43:42;17.23;;;7.97;;
5521;SDS011;2783;48.730;8.006;2022-11-25T06:46:09;17.77;;;7.38;;
5521;SDS011;2783;48.730;8.006;2022-11-25T06:48:36;14.60;;;6.90;;
5521;SDS011;2783;48.730;8.006;2022-11-25T06:51:03;14.68;;;6.57;;
5521;SDS011;2783;48.730;8.006;2022-11-25T06:53:31;11.38;;;5.88;;
5521;SDS011;2783;48.730;8.006;2022-11-25T06:56:05;10.15;;;6.10;;
5521;SDS011;2783;48.730;8.006;2022-11-25T06:58:33;10.85;;;5.90;;
5521;SDS011;2783;48.730;8.006;2022-11-25T07:01:00;10.25;;;5.50;;
5521;SDS011;2783;48.730;8.006;2022-11-25T07:03:28;8.57;;;5.90;;
5521;SDS011;2783;48.730;8.006;2022-11-25T07:05:57;12.82;;;5.32;;
5521;SDS011;2783;48.730;8.006;2022-11-25T07:08:24;9.38;;;5.45;;
5521;SDS011;2783;48.730;8.006;2022-11-25T07:10:51;11.90;;;6.43;;
5521;SDS011;2783;48.730;8.006;2022-11-25T07:13:17;8.45;;;5.38;;
5521;SDS011;2783;48.730;8.006;2022-11-25T07:15:43;11.70;;;5.35;;
5521;SDS011;2783;48.730;8.006;2022-11-25T07:18:08;7.80;;;5.32;;
5521;SDS011;2783;48.730;8.006;2022-11-25T07:20:34;9.82;;;5.53;;
5521;SDS011;2783;48.730;8.006;2022-11-25T07:22:59;12.52;;;7.32;;
5521;SDS011;2783;48.730;8.006;2022-11-25T07:25:24;18.08;;;8.45;;
5521;SDS011;2783;48.730;8.006;2022-11-25T07:27:50;15.02;;;8.13;;
5521;SDS011;2783;48.730;8.006;2022-11-25T07:30:15;14.77;;;7.60;;
5521;SDS011;2783;48.730;8.006;2022-11-25T07:32:41;11.50;;;7.75;;
5521;SDS011;2783;48.730;8.006;2022-11-25T07:35:06;13.60;;;6.63;;
5521;SDS011;2783;48.730;8.006;2022-11-25T07:37:32;10.65;;;6.28;;
5521;SDS011;2783;48.730;8.006;2022-11-25T07:39:57;9.88;;;6.57;;
5521;SDS011;2783;48.730;8.006;2022-11-25T07:42:23;15.18;;;7.75;;
5521;SDS011;2783;48.730;8.006;2022-11-25T07:44:48;11.15;;;7.38;;
5521;SDS011;2783;48.730;8.006;2022-11-25T07:47:14;12.25;;;8.05;;
5521;SDS011;2783;48.730;8.006;2022-11-25T07:49:39;13.80;;;7.47;;
5521;SDS011;2783;48.730;8.006;2022-11-25T07:52:05;14.32;;;8.75;;
5521;SDS011;2783;48.730;8.006;2022-11-25T07:54:30;16.67;;;7.88;;
5521;SDS011;2783;48.730;8.006;2022-11-25T07:56:57;14.73;;;6.72;;
5521;SDS011;2783;48.730;8.006;2022-11-25T07:59:23;13.57;;;6.70;;
5521;SDS011;2783;48.730;8.006;2022-11-25T08:01:49;11.50;;;7.10;;
5521;SDS011;2783;48.730;8.006;2022-11-25T08:04:16;12.80;;;7.97;;
5521;SDS011;2783;48.730;8.006;2022-11-25T08:06:43;11.38;;;5.65;;
5521;SDS011;2783;48.730;8.006;2022-11-25T08:09:11;8.55;;;5.35;;
5521;SDS011;2783;48.730;8.006;2022-11-25T08:11:39;10.05;;;5.18;;
5521;SDS011;2783;48.730;8.006;2022-11-25T08:14:05;12.43;;;6.05;;
5521;SDS011;2783;48.730;8.006;2022-11-25T08:16:31;9.23;;;4.93;;
5521;SDS011;2783;48.730;8.006;2022-11-25T08:19:00;6.45;;;4.35;;
5521;SDS011;2783;48.730;8.006;2022-11-25T08:21:28;7.78;;;4.20;;
5521;SDS011;2783;48.730;8.006;2022-11-25T08:23:54;7.90;;;3.72;;
5521;SDS011;2783;48.730;8.006;2022-11-25T08:26:21;10.77;;;5.03;;
5521;SDS011;2783;48.730;8.006;2022-11-25T08:28:55;11.18;;;4.50;;
5521;SDS011;2783;48.730;8.006;2022-11-25T08:31:23;9.15;;;4.30;;
5521;SDS011;2783;48.730;8.006;2022-11-25T08:33:50;6.47;;;4.05;;
5521;SDS011;2783;48.730;8.006;2022-11-25T08:36:16;8.95;;;4.72;;
5521;SDS011;2783;48.730;8.006;2022-11-25T08:38:43;9.77;;;4.55;;
5521;SDS011;2783;48.730;8.006;2022-11-25T08:41:20;8.43;;;4.43;;
5521;SDS011;2783;48.730;8.006;2022-11-25T08:43:48;9.98;;;5.18;;
5521;SDS011;2783;48.730;8.006;2022-11-25T08:46:15;11.43;;;6.25;;
5521;SDS011;2783;48.730;8.006;2022-11-25T08:48:46;8.73;;;4.60;;
5521;SDS011;2783;48.730;8.006;2022-11-25T08:51:13;8.93;;;4.43;;
5521;SDS011;2783;48.730;8.006;2022-11-25T08:53:41;12.07;;;6.07;;
5521;SDS011;2783;48.730;8.006;2022-11-25T08:56:07;9.35;;;4.40;;
5521;SDS011;2783;48.730;8.006;2022-11-25T08:58:33;9.13;;;5.28;;
5521;SDS011;2783;48.730;8.006;2022-11-25T09:00:58;9.75;;;3.95;;
5521;SDS011;2783;48.730;8.006;2022-11-25T09:03:25;5.65;;;4.00;;
5521;SDS011;2783;48.730;8.006;2022-11-25T09:05:50;8.15;;;3.28;;
5521;SDS011;2783;48.730;8.006;2022-11-25T09:08:18;3.95;;;2.38;;
5521;SDS011;2783;48.730;8.006;2022-11-25T09:10:44;5.45;;;2.20;;
5521;SDS011;2783;48.730;8.006;2022-11-25T09:13:10;5.30;;;2.47;;
5521;SDS011;2783;48.730;8.006;2022-11-25T09:15:36;9.40;;;2.72;;
5521;SDS011;2783;48.730;8.006;2022-11-25T09:18:03;5.47;;;3.88;;
5521;SDS011;2783;48.730;8.006;2022-11-25T09:20:30;10.63;;;3.28;;
5521;SDS011;2783;48.730;8.006;2022-11-25T09:22:57;7.28;;;3.10;;
5521;SDS011;2783;48.730;8.006;2022-11-25T09:25:24;5.90;;;3.13;;
5521;SDS011;2783;48.730;8.006;2022-11-25T09:27:50;9.43;;;2.85;;
5521;SDS011;2783;48.730;8.006;2022-11-25T09:30:15;6.47;;;3.00;;
5521;SDS011;2783;48.730;8.006;2022-11-25T09:32:40;7.72;;;3.10;;
5521;SDS011;2783;48.730;8.006;2022-11-25T09:35:06;5.45;;;3.00;;
5521;SDS011;2783;48.730;8.006;2022-11-25T09:37:32;7.93;;;3.42;;
5521;SDS011;2783;48.730;8.006;2022-11-25T09:39:58;7.68;;;3.25;;
5521;SDS011;2783;48.730;8.006;2022-11-25T09:42:26;7.72;;;3.35;;
5521;SDS011;2783;48.730;8.006;2022-11-25T09:45:26;6.13;;;4.05;;
5521;SDS011;2783;48.730;8.006;2022-11-25T09:51:17;9.38;;;4.30;;
5521;SDS011;2783;48.730;8.006;2022-11-25T10:00:20;10.73;;;6.40;;
5521;SDS011;2783;48.730;8.006;2022-11-25T10:05:25;8.20;;;4.57;;
5521;SDS011;2783;48.730;8.006;2022-11-25T10:07:56;9.77;;;5.03;;
5521;SDS011;2783;48.730;8.006;2022-11-25T10:10:28;108.20;;;42.30;;
5521;SDS011;2783;48.730;8.006;2022-11-25T10:13:10;114.55;;;52.05;;
5521;SDS011;2783;48.730;8.006;2022-11-25T10:15:58;31.75;;;15.70;;
5521;SDS011;2783;48.730;8.006;2022-11-25T10:18:30;18.75;;;10.88;;
5521;SDS011;2783;48.730;8.006;2022-11-25T10:21:03;9.90;;;5.75;;
5521;SDS011;2783;48.730;8.006;2022-11-25T10:23:31;9.77;;;6.05;;
5521;SDS011;2783;48.730;8.006;2022-11-25T10:26:00;10.73;;;5.22;;
5521;SDS011;2783;48.730;8.006;2022-11-25T10:28:37;9.68;;;5.53;;
5521;SDS011;2783;48.730;8.006;2022-11-25T10:33:48;12.23;;;5.00;;
5521;SDS011;2783;48.730;8.006;2022-11-25T10:39:06;11.30;;;5.82;;
5521;SDS011;2783;48.730;8.006;2022-11-25T10:41:44;12.80;;;5.07;;
5521;SDS011;2783;48.730;8.006;2022-11-25T10:44:28;9.02;;;4.53;;
5521;SDS011;2783;48.730;8.006;2022-11-25T10:49:29;12.18;;;5.13;;
5521;SDS011;2783;48.730;8.006;2022-11-25T10:52:06;10.73;;;5.25;;
5521;SDS011;2783;48.730;8.006;2022-11-25T10:54:35;11.70;;;5.00;;
5521;SDS011;2783;48.730;8.006;2022-11-25T10:57:01;14.32;;;5.57;;
5521;SDS011;2783;48.730;8.006;2022-11-25T10:59:35;8.68;;;4.32;;
5521;SDS011;2783;48.730;8.006;2022-11-25T11:04:57;6.32;;;3.45;;
5521;SDS011;2783;48.730;8.006;2022-11-25T11:07:27;7.20;;;3.53;;
5521;SDS011;2783;48.730;8.006;2022-11-25T11:12:37;13.95;;;4.63;;
5521;SDS011;2783;48.730;8.006;2022-11-25T11:17:54;9.05;;;3.63;;
5521;SDS011;2783;48.730;8.006;2022-11-25T11:20:30;8.85;;;4.03;;
5521;SDS011;2783;48.730;8.006;2022-11-25T11:25:39;9.23;;;3.78;;
5521;SDS011;2783;48.730;8.006;2022-11-25T11:28:25;10.75;;;4.38;;
5521;SDS011;2783;48.730;8.006;2022-11-25T11:49:51;7.50;;;3.55;;
5521;SDS011;2783;48.730;8.006;2022-11-25T11:52:32;8.35;;;3.35;;
5521;SDS011;2783;48.730;8.006;2022-11-25T11:55:13;7.57;;;3.75;;
5521;SDS011;2783;48.730;8.006;2022-11-25T11:58:22;10.60;;;3.70;;
5521;SDS011;2783;48.730;8.006;2022-11-25T12:01:02;9.55;;;4.10;;
5521;SDS011;2783;48.730;8.006;2022-11-25T12:04:14;6.25;;;3.55;;
5521;SDS011;2783;48.730;8.006;2022-11-25T12:09:22;7.53;;;3.08;;
5521;SDS011;2783;48.730;8.006;2022-11-25T12:11:53;13.00;;;4.28;;
5521;SDS011;2783;48.730;8.006;2022-11-25T12:14:42;7.05;;;3.80;;
5521;SDS011;2783;48.730;8.006;2022-11-25T12:17:19;11.18;;;4.13;;
5521;SDS011;2783;48.730;8.006;2022-11-25T12:19:53;10.13;;;5.07;;
5521;SDS011;2783;48.730;8.006;2022-11-25T12:22:39;9.45;;;3.55;;
5521;SDS011;2783;48.730;8.006;2022-11-25T12:25:18;8.20;;;4.80;;
5521;SDS011;2783;48.730;8.006;2022-11-25T12:30:28;9.80;;;4.68;;
5521;SDS011;2783;48.730;8.006;2022-11-25T12:35:46;8.43;;;4.38;;
5521;SDS011;2783;48.730;8.006;2022-11-25T12:40:46;6.93;;;3.97;;
5521;SDS011;2783;48.730;8.006;2022-11-25T12:46:21;10.50;;;4.28;;
5521;SDS011;2783;48.730;8.006;2022-11-25T12:48:54;9.77;;;5.22;;
5521;SDS011;2783;48.730;8.006;2022-11-25T12:51:34;9.98;;;4.68;;
5521;SDS011;2783;48.730;8.006;2022-11-25T12:54:48;8.63;;;3.70;;
5521;SDS011;2783;48.730;8.006;2022-11-25T13:00:23;10.52;;;6.07;;
5521;SDS011;2783;48.730;8.006;2022-11-25T13:16:21;11.57;;;4.63;;
5521;SDS011;2783;48.730;8.006;2022-11-25T13:18:48;9.35;;;4.55;;
5521;SDS011;2783;48.730;8.006;2022-11-25T13:21:14;6.43;;;3.65;;
5521;SDS011;2783;48.730;8.006;2022-11-25T13:23:43;9.77;;;4.18;;
5521;SDS011;2783;48.730;8.006;2022-11-25T13:26:35;8.57;;;3.63;;
5521;SDS011;2783;48.730;8.006;2022-11-25T13:36:56;8.25;;;4.47;;
5521;SDS011;2783;48.730;8.006;2022-11-25T13:42:04;15.15;;;5.18;;
5521;SDS011;2783;48.730;8.006;2022-11-25T13:50:17;9.18;;;5.30;;
5521;SDS011;2783;48.730;8.006;2022-11-25T13:57:45;7.28;;;3.97;;
5521;SDS011;2783;48.730;8.006;2022-11-25T14:02:43;9.02;;;4.10;;
5521;SDS011;2783;48.730;8.006;2022-11-25T14:05:29;8.55;;;4.40;;
5521;SDS011;2783;48.730;8.006;2022-11-25T14:08:06;9.05;;;4.65;;
5521;SDS011;2783;48.730;8.006;2022-11-25T14:13:39;15.45;;;8.07;;
5521;SDS011;2783;48.730;8.006;2022-11-25T14:24:05;13.35;;;6.47;;
5521;SDS011;2783;48.730;8.006;2022-11-25T14:26:45;10.95;;;6.10;;
5521;SDS011;2783;48.730;8.006;2022-11-25T14:31:44;10.33;;;6.00;;
5521;SDS011;2783;48.730;8.006;2022-11-25T14:34:16;15.95;;;7.10;;
5521;SDS011;2783;48.730;8.006;2022-11-25T14:36:50;10.55;;;5.30;;
5521;SDS011;2783;48.730;8.006;2022-11-25T14:39:31;11.30;;;6.07;;
5521;SDS011;2783;48.730;8.006;2022-11-25T14:42:02;14.18;;;7.30;;
5521;SDS011;2783;48.730;8.006;2022-11-25T14:44:39;11.98;;;6.72;;
5521;SDS011;2783;48.730;8.006;2022-11-25T14:47:11;9.75;;;5.10;;
5521;SDS011;2783;48.730;8.006;2022-11-25T14:49:43;15.27;;;6.47;;
5521;SDS011;2783;48.730;8.006;2022-11-25T14:52:34;14.10;;;7.38;;
5521;SDS011;2783;48.730;8.006;2022-11-25T14:55:00;10.02;;;4.40;;
5521;SDS011;2783;48.730;8.006;2022-11-25T14:57:27;6.68;;;2.95;;
5521;SDS011;2783;48.730;8.006;2022-11-25T15:00:01;12.05;;;4.88;;
5521;SDS011;2783;48.730;8.006;2022-11-25T15:02:36;10.35;;;5.55;;
5521;SDS011;2783;48.730;8.006;2022-11-25T15:07:40;8.90;;;5.95;;
5521;SDS011;2783;48.730;8.006;2022-11-25T15:10:26;16.23;;;5.95;;
5521;SDS011;2783;48.730;8.006;2022-11-25T15:12:56;12.02;;;6.60;;
5521;SDS011;2783;48.730;8.006;2022-11-25T15:15:24;9.43;;;5.85;;
5521;SDS011;2783;48.730;8.006;2022-11-25T15:17:50;11.20;;;5.93;;
5521;SDS011;2783;48.730;8.006;2022-11-25T15:20:19;11.05;;;6.80;;
5521;SDS011;2783;48.730;8.006;2022-11-25T15:22:46;12.48;;;6.18;;
5521;SDS011;2783;48.730;8.006;2022-11-25T15:25:15;11.35;;;6.70;;
5521;SDS011;2783;48.730;8.006;2022-11-25T15:27:48;14.35;;;7.75;;
5521;SDS011;2783;48.730;8.006;2022-11-25T15:32:45;10.80;;;5.22;;
5521;SDS011;2783;48.730;8.006;2022-11-25T15:35:15;12.82;;;5.50;;
5521;SDS011;2783;48.730;8.006;2022-11-25T15:37:42;9.30;;;4.70;;
5521;SDS011;2783;48.730;8.006;2022-11-25T15:43:18;11.10;;;6.13;;
5521;SDS011;2783;48.730;8.006;2022-11-25T15:45:47;11.55;;;6.05;;
5521;SDS011;2783;48.730;8.006;2022-11-25T15:48:22;12.07;;;6.20;;
5521;SDS011;2783;48.730;8.006;2022-11-25T15:50:57;14.40;;;6.90;;
5521;SDS011;2783;48.730;8.006;2022-11-25T15:53:26;11.75;;;6.22;;
5521;SDS011;2783;48.730;8.006;2022-11-25T15:55:52;13.48;;;7.07;;
5521;SDS011;2783;48.730;8.006;2022-11-25T15:58:24;15.35;;;7.13;;
5521;SDS011;2783;48.730;8.006;2022-11-25T16:03:41;11.43;;;5.45;;
5521;SDS011;2783;48.730;8.006;2022-11-25T16:06:21;8.98;;;4.75;;
5521;SDS011;2783;48.730;8.006;2022-11-25T16:08:51;10.63;;;5.82;;
5521;SDS011;2783;48.730;8.006;2022-11-25T16:11:21;14.05;;;6.65;;
5521;SDS011;2783;48.730;8.006;2022-11-25T16:13:49;30.05;;;6.88;;
5521;SDS011;2783;48.730;8.006;2022-11-25T16:16:26;37.92;;;8.15;;
5521;SDS011;2783;48.730;8.006;2022-11-25T16:21:41;16.35;;;5.55;;
5521;SDS011;2783;48.730;8.006;2022-11-25T16:24:31;30.42;;;6.82;;
5521;SDS011;2783;48.730;8.006;2022-11-25T16:27:03;9.80;;;4.55;;
5521;SDS011;2783;48.730;8.006;2022-11-25T16:29:38;38.38;;;6.50;;
5521;SDS011;2783;48.730;8.006;2022-11-25T16:32:20;11.13;;;5.00;;
5521;SDS011;2783;48.730;8.006;2022-11-25T16:34:50;9.73;;;5.22;;
5521;SDS011;2783;48.730;8.006;2022-11-25T16:37:15;19.85;;;8.00;;
5521;SDS011;2783;48.730;8.006;2022-11-25T16:39:41;35.80;;;16.17;;
5521;SDS011;2783;48.730;8.006;2022-11-25T16:42:07;51.08;;;14.70;;
5521;SDS011;2783;48.730;8.006;2022-11-25T16:44:42;24.85;;;9.05;;
5521;SDS011;2783;48.730;8.006;2022-11-25T16:47:12;14.00;;;6.97;;
5521;SDS011;2783;48.730;8.006;2022-11-25T16:49:37;13.93;;;6.78;;
5521;SDS011;2783;48.730;8.006;2022-11-25T16:52:03;10.75;;;4.82;;
5521;SDS011;2783;48.730;8.006;2022-11-25T16:54:28;30.73;;;6.68;;
5521;SDS011;2783;48.730;8.006;2022-11-25T16:56:55;16.45;;;5.15;;
5521;SDS011;2783;48.730;8.006;2022-11-25T16:59:28;17.45;;;4.40;;
5521;SDS011;2783;48.730;8.006;2022-11-25T17:01:57;12.77;;;5.13;;
5521;SDS011;2783;48.730;8.006;2022-11-25T17:04:24;16.30;;;6.63;;
5521;SDS011;2783;48.730;8.006;2022-11-25T17:06:49;12.18;;;5.47;;
5521;SDS011;2783;48.730;8.006;2022-11-25T17:09:15;23.02;;;6.45;;
5521;SDS011;2783;48.730;8.006;2022-11-25T17:11:41;16.40;;;7.40;;
5521;SDS011;2783;48.730;8.006;2022-11-25T17:14:12;12.25;;;6.80;;
5521;SDS011;2783;48.730;8.006;2022-11-25T17:16:44;19.13;;;12.30;;
5521;SDS011;2783;48.730;8.006;2022-11-25T17:19:13;16.70;;;6.07;;
5521;SDS011;2783;48.730;8.006;2022-11-25T17:21:40;14.38;;;7.30;;
5521;SDS011;2783;48.730;8.006;2022-11-25T17:24:09;10.38;;;5.72;;
5521;SDS011;2783;48.730;8.006;2022-11-25T17:26:39;11.00;;;4.82;;
5521;SDS011;2783;48.730;8.006;2022-11-25T17:29:09;10.45;;;6.38;;
5521;SDS011;2783;48.730;8.006;2022-11-25T17:31:38;11.48;;;5.78;;
5521;SDS011;2783;48.730;8.006;2022-11-25T17:34:04;12.23;;;5.93;;
5521;SDS011;2783;48.730;8.006;2022-11-25T17:36:30;12.32;;;6.72;;
5521;SDS011;2783;48.730;8.006;2022-11-25T17:38:55;11.95;;;7.03;;